createdAt,value
2023-04-10T00:00:52.420Z,25.92
2023-04-10T00:03:58.172Z,22.30
2023-04-10T00:07:04.671Z,18.90
2023-04-10T00:10:10.278Z,22.05
2023-04-10T00:13:16.007Z,23.05
2023-04-10T00:16:22.907Z,23.35
2023-04-10T00:19:29.258Z,21.40
2023-04-10T00:22:35.738Z,21.85
2023-04-10T00:25:41.790Z,23.85
2023-04-10T00:28:47.595Z,21.95
2023-04-10T00:31:53.577Z,24.35
2023-04-10T00:35:00.327Z,23.55
2023-04-10T00:38:05.655Z,24.90
2023-04-10T00:43:54.690Z,30.57
2023-04-10T00:47:01.052Z,23.50
2023-04-10T00:50:07.152Z,24.00
2023-04-10T00:53:13.025Z,22.22
2023-04-10T00:56:17.929Z,23.90
2023-04-10T00:59:22.742Z,26.30
2023-04-10T01:07:56.247Z,24.82
2023-04-10T01:16:19.110Z,23.38
2023-04-10T01:20:08.958Z,25.92
2023-04-10T01:23:53.421Z,28.92
2023-04-10T01:30:02.924Z,22.32
2023-04-10T01:33:09.907Z,19.50
2023-04-10T01:36:17.347Z,31.17
2023-04-10T01:41:48.891Z,26.15
2023-04-10T01:47:23.987Z,27.87
2023-04-10T01:52:54.823Z,25.90
2023-04-10T01:56:00.476Z,24.40
2023-04-10T02:01:34.954Z,24.67
2023-04-10T02:04:40.791Z,62.17
2023-04-10T02:10:28.251Z,81.55
2023-04-10T02:13:35.879Z,84.05
2023-04-10T02:16:43.158Z,108.83
2023-04-10T02:19:49.290Z,187.20
2023-04-10T02:22:55.985Z,120.42
2023-04-10T02:26:03.642Z,162.27
2023-04-10T02:29:09.931Z,230.55
2023-04-10T02:32:16.101Z,186.62
2023-04-10T02:35:21.508Z,156.57
2023-04-10T02:38:27.807Z,167.75
2023-04-10T02:41:32.445Z,119.65
2023-04-10T02:44:37.952Z,155.27
2023-04-10T02:47:44.485Z,102.38
2023-04-10T02:50:52.300Z,78.75
2023-04-10T02:53:59.867Z,52.47
2023-04-10T02:57:05.816Z,31.68
2023-04-10T03:00:12.034Z,37.85
2023-04-10T03:03:22.128Z,28.23
2023-04-10T03:06:30.505Z,28.75
2023-04-10T03:09:37.650Z,30.43
2023-04-10T03:12:43.193Z,22.17
2023-04-10T03:15:49.144Z,25.88
2023-04-10T03:18:55.226Z,20.27
2023-04-10T03:22:01.465Z,23.73
2023-04-10T03:25:06.695Z,28.00
2023-04-10T03:28:11.783Z,26.10
2023-04-10T03:31:19.330Z,41.70
2023-04-10T03:34:26.997Z,28.57
2023-04-10T03:37:34.812Z,30.77
2023-04-10T03:40:41.414Z,28.75
2023-04-10T03:43:48.527Z,24.32
2023-04-10T03:46:53.719Z,25.05
2023-04-10T03:50:01.377Z,25.15
2023-04-10T03:53:09.019Z,25.68
2023-04-10T03:56:15.345Z,27.75
2023-04-10T03:59:24.279Z,30.00
2023-04-10T04:02:28.737Z,25.72
2023-04-10T04:05:35.390Z,30.37
2023-04-10T04:08:58.687Z,30.85
2023-04-10T04:12:05.774Z,30.60
2023-04-10T04:15:14.515Z,29.12
2023-04-10T04:18:21.838Z,31.17
2023-04-10T04:21:30.395Z,35.30
2023-04-10T04:24:41.513Z,28.75
2023-04-10T04:27:49.889Z,29.15
2023-04-10T04:30:57.226Z,30.00
2023-04-10T04:34:14.658Z,30.25
2023-04-10T04:37:24.172Z,28.40
2023-04-10T04:40:35.647Z,31.02
2023-04-10T04:44:00.556Z,29.60
2023-04-10T04:49:44.005Z,24.43
2023-04-10T04:52:53.952Z,27.22
2023-04-10T04:56:13.205Z,28.98
2023-04-10T05:01:58.619Z,23.45
2023-04-10T05:05:07.230Z,28.52
2023-04-10T05:08:19.271Z,22.77
2023-04-10T05:11:29.787Z,21.97
2023-04-10T05:14:48.908Z,22.58
2023-04-10T05:17:59.427Z,22.42
2023-04-10T05:21:07.615Z,22.02
2023-04-10T05:24:21.721Z,23.75
2023-04-10T05:27:45.136Z,26.25
2023-04-10T05:30:58.851Z,28.40
2023-04-10T05:34:00.619Z,19.30
2023-04-10T05:37:15.792Z,22.73
2023-04-10T05:40:25.152Z,18.27
2023-04-10T05:43:50.225Z,19.10
2023-04-10T05:47:14.618Z,18.27
2023-04-10T05:50:38.990Z,27.37
2023-04-10T05:53:48.453Z,20.30
2023-04-10T05:56:59.745Z,19.57
2023-04-10T06:00:12.548Z,22.22
2023-04-10T06:03:38.910Z,21.50
2023-04-10T06:06:46.037Z,24.77
2023-04-10T06:09:51.461Z,19.82
2023-04-10T06:12:50.317Z,19.55
2023-04-10T06:15:58.184Z,21.42
2023-04-10T06:19:04.618Z,29.48
2023-04-10T06:22:10.150Z,31.42
2023-04-10T06:25:15.720Z,21.25
2023-04-10T06:28:21.598Z,20.40
2023-04-10T06:31:29.364Z,27.95
2023-04-10T06:34:34.417Z,18.65
2023-04-10T06:37:44.282Z,26.87
2023-04-10T06:40:51.596Z,23.95
2023-04-10T06:43:57.741Z,19.90
2023-04-10T06:47:04.171Z,25.70
2023-04-10T06:50:09.362Z,20.32
2023-04-10T06:53:14.937Z,20.57
2023-04-10T06:56:21.217Z,28.23
2023-04-10T06:59:26.168Z,27.65
2023-04-10T07:02:32.037Z,25.60
2023-04-10T07:05:38.294Z,22.95
2023-04-10T07:08:45.146Z,23.65
2023-04-10T07:11:50.333Z,20.70
2023-04-10T07:14:57.203Z,17.92
2023-04-10T07:18:03.786Z,21.23
2023-04-10T07:21:09.411Z,20.12
2023-04-10T07:24:14.888Z,16.30
2023-04-10T07:27:20.199Z,28.77
2023-04-10T07:30:25.760Z,16.87
2023-04-10T07:33:31.220Z,25.35
2023-04-10T07:36:36.334Z,24.15
2023-04-10T07:39:41.634Z,22.50
2023-04-10T07:42:48.124Z,20.17
2023-04-10T07:45:54.638Z,25.65
2023-04-10T07:49:01.514Z,15.85
2023-04-10T07:52:08.325Z,20.70
2023-04-10T07:55:15.525Z,16.50
2023-04-10T07:58:22.173Z,21.87
2023-04-10T08:01:28.864Z,21.27
2023-04-10T08:04:34.559Z,24.70
2023-04-10T08:07:43.420Z,16.37
2023-04-10T08:10:51.272Z,15.23
2023-04-10T08:13:58.660Z,20.72
2023-04-10T08:17:05.247Z,15.18
2023-04-10T08:20:12.021Z,13.08
2023-04-10T08:23:20.734Z,16.27
2023-04-10T08:26:24.591Z,13.43
2023-04-10T08:29:31.330Z,12.85
2023-04-10T08:32:37.751Z,12.07
2023-04-10T08:35:44.289Z,16.50
2023-04-10T08:38:50.022Z,14.00
2023-04-10T08:41:56.279Z,11.50
2023-04-10T08:45:04.482Z,10.78
2023-04-10T08:48:09.463Z,12.60
2023-04-10T08:51:20.060Z,14.78
2023-04-10T08:54:35.594Z,11.20
2023-04-10T08:57:29.055Z,13.90
2023-04-10T09:00:33.959Z,16.00
2023-04-10T09:03:41.626Z,8.65
2023-04-10T09:06:46.988Z,13.18
2023-04-10T09:09:54.035Z,8.80
2023-04-10T09:13:01.111Z,14.45
2023-04-10T09:16:13.498Z,14.68
2023-04-10T09:19:20.182Z,14.43
2023-04-10T09:22:25.624Z,11.68
2023-04-10T09:25:51.315Z,13.38
2023-04-10T09:29:23.383Z,18.30
2023-04-10T09:32:30.502Z,13.93
2023-04-10T09:35:37.175Z,14.60
2023-04-10T09:38:42.751Z,12.28
2023-04-10T09:41:49.347Z,25.25
2023-04-10T09:44:54.767Z,18.85
2023-04-10T09:48:17.851Z,13.50
2023-04-10T09:51:29.066Z,18.07
2023-04-10T09:54:34.534Z,13.78
2023-04-10T09:57:43.444Z,10.60
2023-04-10T10:00:57.175Z,16.52
2023-04-10T10:04:04.787Z,11.22
2023-04-10T10:07:10.406Z,17.80
2023-04-10T10:10:17.208Z,13.98
2023-04-10T10:13:24.968Z,11.35
2023-04-10T10:16:54.516Z,14.95
2023-04-10T10:20:24.385Z,16.93
2023-04-10T10:23:30.354Z,11.03
2023-04-10T10:26:36.612Z,13.95
2023-04-10T10:29:41.397Z,8.73
2023-04-10T10:32:46.631Z,8.48
2023-04-10T10:35:53.238Z,13.45
2023-04-10T10:39:20.973Z,9.85
2023-04-10T10:42:49.924Z,16.60
2023-04-10T10:46:13.440Z,17.52
2023-04-10T10:49:20.040Z,17.70
2023-04-10T10:52:25.900Z,16.77
2023-04-10T10:55:44.349Z,14.55
2023-04-10T10:59:10.631Z,9.08
2023-04-10T11:02:34.359Z,15.53
2023-04-10T11:06:04.005Z,12.95
2023-04-10T11:09:09.811Z,12.23
2023-04-10T11:12:15.408Z,11.35
2023-04-10T11:15:21.839Z,11.48
2023-04-10T11:18:30.220Z,13.95
2023-04-10T11:21:38.127Z,10.65
2023-04-10T11:24:46.322Z,12.10
2023-04-10T11:28:02.367Z,11.35
2023-04-10T11:31:09.462Z,8.88
2023-04-10T11:34:23.462Z,16.67
2023-04-10T11:37:37.825Z,15.08
2023-04-10T11:40:42.704Z,19.57
2023-04-10T11:43:48.586Z,15.40
2023-04-10T11:46:58.303Z,15.68
2023-04-10T11:50:05.612Z,11.75
2023-04-10T11:53:11.187Z,13.00
2023-04-10T11:56:16.135Z,13.18
2023-04-10T11:59:24.246Z,9.53
2023-04-10T12:02:30.932Z,11.45
2023-04-10T12:05:36.217Z,11.57
2023-04-10T12:08:54.186Z,10.93
2023-04-10T12:12:12.791Z,10.85
2023-04-10T12:15:20.541Z,10.90
2023-04-10T12:18:26.320Z,9.43
2023-04-10T12:21:33.498Z,9.23
2023-04-10T12:25:06.316Z,12.23
2023-04-10T12:28:13.151Z,8.00
2023-04-10T12:31:19.882Z,8.70
2023-04-10T12:34:26.227Z,9.60
2023-04-10T12:37:32.589Z,9.95
2023-04-10T12:40:38.299Z,15.15
2023-04-10T12:43:48.179Z,10.38
2023-04-10T12:46:37.139Z,17.55
2023-04-10T12:49:29.469Z,10.25
2023-04-10T12:52:38.436Z,10.72
2023-04-10T12:55:45.350Z,9.95
2023-04-10T12:58:52.990Z,7.03
2023-04-10T13:01:58.445Z,19.23
2023-04-10T13:05:06.164Z,7.20
2023-04-10T13:08:12.105Z,7.08
2023-04-10T13:11:18.074Z,12.58
2023-04-10T13:14:25.669Z,10.60
2023-04-10T13:17:31.482Z,11.63
2023-04-10T13:20:37.928Z,7.28
2023-04-10T13:23:43.603Z,10.15
2023-04-10T13:26:50.370Z,6.55
2023-04-10T13:29:57.283Z,10.13
2023-04-10T13:32:56.705Z,13.35
2023-04-10T13:36:03.901Z,8.28
2023-04-10T13:39:10.167Z,13.30
2023-04-10T13:42:16.381Z,12.05
2023-04-10T13:45:23.972Z,11.75
2023-04-10T13:48:37.366Z,12.95
2023-04-10T13:51:31.268Z,14.50
2023-04-10T13:54:37.015Z,12.65
2023-04-10T13:57:43.357Z,10.80
2023-04-10T14:00:49.488Z,14.87
2023-04-10T14:03:54.821Z,8.35
2023-04-10T14:07:02.884Z,10.20
2023-04-10T14:10:09.328Z,13.00
2023-04-10T14:13:18.441Z,17.35
2023-04-10T14:16:25.919Z,9.98
2023-04-10T14:19:31.807Z,13.20
2023-04-10T14:22:38.367Z,10.08
2023-04-10T14:25:44.863Z,12.45
2023-04-10T14:28:52.687Z,12.13
2023-04-10T14:32:01.720Z,9.80
2023-04-10T14:35:06.576Z,15.40
2023-04-10T14:38:13.721Z,10.88
2023-04-10T14:41:20.138Z,17.60
2023-04-10T14:44:26.421Z,12.40
2023-04-10T14:47:33.662Z,12.58
2023-04-10T14:50:38.693Z,9.73
2023-04-10T14:53:45.181Z,13.85
2023-04-10T14:56:50.169Z,10.32
2023-04-10T14:59:48.726Z,13.60
2023-04-10T15:02:55.875Z,13.55
2023-04-10T15:06:01.279Z,16.45
2023-04-10T15:09:07.645Z,12.70
2023-04-10T15:12:13.507Z,8.28
2023-04-10T15:15:21.162Z,16.02
2023-04-10T15:18:27.397Z,10.90
2023-04-10T15:21:34.191Z,11.48
2023-04-10T15:24:50.005Z,9.55
2023-04-10T15:27:48.242Z,10.65
2023-04-10T15:30:59.814Z,17.92
2023-04-10T15:34:06.831Z,10.43
2023-04-10T15:37:12.336Z,9.85
2023-04-10T15:40:19.068Z,15.10
2023-04-10T15:43:24.499Z,10.63
2023-04-10T15:46:31.051Z,11.93
2023-04-10T15:49:38.841Z,15.80
2023-04-10T15:52:44.358Z,11.70
2023-04-10T15:55:50.200Z,12.63
2023-04-10T15:58:57.243Z,19.35
2023-04-10T16:02:03.879Z,8.43
2023-04-10T16:05:10.694Z,9.65
2023-04-10T16:08:17.307Z,12.23
2023-04-10T16:11:22.562Z,10.53
2023-04-10T16:14:28.693Z,13.00
2023-04-10T16:17:35.043Z,7.92
2023-04-10T16:20:43.233Z,8.60
2023-04-10T16:23:50.039Z,16.85
2023-04-10T16:26:56.892Z,8.55
2023-04-10T16:30:02.674Z,14.18
2023-04-10T16:33:08.727Z,9.58
2023-04-10T16:36:14.882Z,8.60
2023-04-10T16:39:20.139Z,12.60
2023-04-10T16:42:26.022Z,13.13
2023-04-10T16:45:25.260Z,12.47
2023-04-10T16:48:11.412Z,7.97
2023-04-10T16:51:06.263Z,10.03
2023-04-10T16:53:59.016Z,9.03
2023-04-10T16:57:04.647Z,13.88
2023-04-10T17:00:13.494Z,9.45
2023-04-10T17:03:14.514Z,11.33
2023-04-10T17:05:59.880Z,14.35
2023-04-10T17:08:54.306Z,12.85
2023-04-10T17:11:47.254Z,8.50
2023-04-10T17:14:53.591Z,11.95
2023-04-10T17:17:58.906Z,14.58
2023-04-10T17:21:04.612Z,11.55
2023-04-10T17:24:10.863Z,10.55
2023-04-10T17:27:17.888Z,12.03
2023-04-10T17:30:27.740Z,10.65
2023-04-10T17:33:33.547Z,13.10
2023-04-10T17:36:39.829Z,11.95
2023-04-10T17:39:44.554Z,10.50
2023-04-10T17:42:50.060Z,11.55
2023-04-10T17:45:55.956Z,11.93
2023-04-10T17:49:03.823Z,12.73
2023-04-10T17:52:08.853Z,11.70
2023-04-10T17:55:16.364Z,10.13
2023-04-10T17:58:22.601Z,9.88
2023-04-10T18:01:38.377Z,13.32
2023-04-10T18:04:44.627Z,16.00
2023-04-10T18:07:54.183Z,11.10
2023-04-10T18:11:01.037Z,12.78
2023-04-10T18:14:06.630Z,11.78
2023-04-10T18:17:13.795Z,12.90
2023-04-10T18:20:22.093Z,13.30
2023-04-10T18:23:30.320Z,9.63
2023-04-10T18:26:34.741Z,11.53
2023-04-10T18:29:40.642Z,11.05
2023-04-10T18:32:46.733Z,12.20
2023-04-10T18:35:52.264Z,9.98
2023-04-10T18:38:57.364Z,17.75
2023-04-10T18:42:06.018Z,13.95
2023-04-10T18:45:11.565Z,9.93
2023-04-10T18:48:17.093Z,14.10
2023-04-10T18:51:24.144Z,10.15
2023-04-10T18:54:29.542Z,17.82
2023-04-10T18:57:36.694Z,11.28
2023-04-10T19:00:42.772Z,15.85
2023-04-10T19:03:52.339Z,12.70
2023-04-10T19:06:58.227Z,14.43
2023-04-10T19:10:05.896Z,11.70
2023-04-10T19:13:13.315Z,13.55
2023-04-10T19:16:24.662Z,12.25
2023-04-10T19:19:31.212Z,13.45
2023-04-10T19:22:38.734Z,11.40
2023-04-10T19:25:44.848Z,12.70
2023-04-10T19:28:51.569Z,16.82
2023-04-10T19:31:58.012Z,15.40
2023-04-10T19:35:04.847Z,11.25
2023-04-10T19:38:13.168Z,18.25
2023-04-10T19:41:29.052Z,18.40
2023-04-10T19:44:34.940Z,10.60
2023-04-10T19:47:42.777Z,15.50
2023-04-10T19:50:42.706Z,20.25
2023-04-10T19:53:48.623Z,14.50
2023-04-10T19:56:54.492Z,9.60
2023-04-10T20:00:01.277Z,15.28
2023-04-10T20:03:09.954Z,15.13
2023-04-10T20:06:19.289Z,17.27
2023-04-10T20:09:25.585Z,14.20
2023-04-10T20:12:31.253Z,15.28
2023-04-10T20:15:38.107Z,17.70
2023-04-10T20:18:43.296Z,14.93
2023-04-10T20:21:48.539Z,20.88
2023-04-10T20:24:54.928Z,15.80
2023-04-10T20:27:54.636Z,20.05
2023-04-10T20:31:00.323Z,18.57
2023-04-10T20:34:05.099Z,18.48
2023-04-10T20:37:10.629Z,12.20
2023-04-10T20:40:16.043Z,17.45
2023-04-10T20:43:23.132Z,19.23
2023-04-10T20:46:28.921Z,14.65
2023-04-10T20:49:36.654Z,19.85
2023-04-10T20:52:43.088Z,15.63
2023-04-10T20:55:53.613Z,14.18
2023-04-10T20:58:59.309Z,14.93
2023-04-10T21:02:05.746Z,17.15
2023-04-10T21:05:12.721Z,14.65
2023-04-10T21:08:18.715Z,23.73
2023-04-10T21:11:26.749Z,17.57
2023-04-10T21:14:33.755Z,13.75
2023-04-10T21:17:38.871Z,14.55
2023-04-10T21:20:44.484Z,11.28
2023-04-10T21:23:49.904Z,11.43
2023-04-10T21:26:55.811Z,15.80
2023-04-10T21:30:01.686Z,14.68
2023-04-10T21:33:08.287Z,11.93
2023-04-10T21:36:07.236Z,18.02
2023-04-10T21:39:16.316Z,13.38
2023-04-10T21:42:21.021Z,17.20
2023-04-10T21:45:26.976Z,17.70
2023-04-10T21:48:33.200Z,19.00
2023-04-10T21:51:39.219Z,13.85
2023-04-10T21:54:45.604Z,22.27
2023-04-10T21:57:51.181Z,21.12
2023-04-10T22:00:58.934Z,15.30
2023-04-10T22:04:05.730Z,14.35
2023-04-10T22:07:12.470Z,15.43
2023-04-10T22:10:17.599Z,16.65
2023-04-10T22:13:30.698Z,22.40
2023-04-10T22:16:31.847Z,22.77
2023-04-10T22:19:37.608Z,24.32
2023-04-10T22:22:45.018Z,20.75
2023-04-10T22:25:50.448Z,25.37
2023-04-10T22:28:57.541Z,23.67
2023-04-10T22:32:04.567Z,18.90
2023-04-10T22:35:12.487Z,17.75
2023-04-10T22:38:18.743Z,17.73
2023-04-10T22:41:25.158Z,17.57
2023-04-10T22:44:31.122Z,23.55
2023-04-10T22:47:37.824Z,17.40
2023-04-10T22:50:39.604Z,19.20
2023-04-10T22:53:33.348Z,23.62
2023-04-10T22:56:39.338Z,22.62
2023-04-10T22:59:45.888Z,21.10
2023-04-10T23:02:51.027Z,23.45
2023-04-10T23:05:56.447Z,21.50
2023-04-10T23:09:02.339Z,25.20
2023-04-10T23:12:09.221Z,21.82
2023-04-10T23:15:07.730Z,22.80
2023-04-10T23:18:14.623Z,24.55
2023-04-10T23:21:22.110Z,27.13
2023-04-10T23:24:27.372Z,26.30
2023-04-10T23:27:27.084Z,26.68
2023-04-10T23:30:34.498Z,20.70
2023-04-10T23:33:41.200Z,21.15
2023-04-10T23:36:46.714Z,21.70
2023-04-10T23:39:53.575Z,18.10
2023-04-10T23:42:59.059Z,22.75
2023-04-10T23:46:04.026Z,22.60
2023-04-10T23:49:09.706Z,24.63
2023-04-10T23:52:15.618Z,17.05
2023-04-10T23:55:22.269Z,19.62
2023-04-10T23:58:28.151Z,15.20
